Ithaca College, New York
Current Conditions -  °F | °C
As of 3:56 AM on Sunday 26 Oct 2014 (Local Time) from KITH Reporting Station
Clear Clear  
Wind Chill: 39°   Ceiling: Unl
Heat Index: 44°   Visibility: 10mi
Dew Point: 39°   Wind: 8mph
Humidity: 82%   Direction: 300°WNW
Pressure: 29.62"   Gusts: NA
Location:  42.432°N, 76.4974°W
Report Text: KITH 260756Z AUTO 30007KT 10SM CLR 07/04 A2962 RMK AO2 T00660038 SLP032
Loading
Personal Weather Stations






























Interactive Weather Map
Tropical Storm Tracking
New forecast layout! Learn more

10-Day Weather Forecast

Advertisements
Track Severe Weather on mobile